sensor_id;sensor_type;location;lat;lon;timestamp;pressure;altitude;pressure_sealevel;temperature;humidity
42887;BME280;29032;56.028;92.904;2022-07-23T00:04:29;97920.97;;;15.85;67.58
42887;BME280;29032;56.028;92.904;2022-07-23T00:09:31;97923.91;;;15.87;68.20
42887;BME280;29032;56.028;92.904;2022-07-23T00:14:35;97929.78;;;15.91;68.64
42887;BME280;29032;56.028;92.904;2022-07-23T00:19:37;97928.44;;;15.92;68.53
42887;BME280;29032;56.028;92.904;2022-07-23T00:24:39;97930.88;;;15.98;68.74
42887;BME280;29032;56.028;92.904;2022-07-23T00:29:43;97932.34;;;16.11;67.93
42887;BME280;29032;56.028;92.904;2022-07-23T00:34:45;97918.44;;;16.13;68.06
42887;BME280;29032;56.028;92.904;2022-07-23T00:39:47;97923.81;;;16.20;67.39
42887;BME280;29032;56.028;92.904;2022-07-23T00:44:50;97937.84;;;16.32;67.48
42887;BME280;29032;56.028;92.904;2022-07-23T00:49:53;97933.91;;;16.37;67.64
42887;BME280;29032;56.028;92.904;2022-07-23T00:54:55;97931.00;;;16.47;65.30
42887;BME280;29032;56.028;92.904;2022-07-23T00:59:59;97937.34;;;16.59;64.76
42887;BME280;29032;56.028;92.904;2022-07-23T01:05:01;97940.28;;;16.61;63.67
42887;BME280;29032;56.028;92.904;2022-07-23T01:10:05;97934.28;;;16.67;63.17
42887;BME280;29032;56.028;92.904;2022-07-23T01:15:09;97943.28;;;16.77;63.08
42887;BME280;29032;56.028;92.904;2022-07-23T01:20:11;97937.69;;;16.77;62.36
42887;BME280;29032;56.028;92.904;2022-07-23T01:25:16;97926.91;;;16.85;62.32
42887;BME280;29032;56.028;92.904;2022-07-23T01:30:27;97926.91;;;16.85;62.02
42887;BME280;29032;56.028;92.904;2022-07-23T01:35:30;97921.38;;;16.87;61.75
42887;BME280;29032;56.028;92.904;2022-07-23T01:40:38;97914.66;;;16.92;61.11
42887;BME280;29032;56.028;92.904;2022-07-23T01:45:41;97918.81;;;16.91;60.46
42887;BME280;29032;56.028;92.904;2022-07-23T01:50:43;97924.69;;;16.95;60.20
42887;BME280;29032;56.028;92.904;2022-07-23T01:55:58;97934.66;;;17.10;59.48
42887;BME280;29032;56.028;92.904;2022-07-23T02:01:00;97927.28;;;17.17;59.96
42887;BME280;29032;56.028;92.904;2022-07-23T02:06:02;97930.44;;;17.23;58.43
42887;BME280;29032;56.028;92.904;2022-07-23T02:11:06;97942.50;;;17.37;58.46
42887;BME280;29032;56.028;92.904;2022-07-23T02:16:08;97949.94;;;17.44;57.51
42887;BME280;29032;56.028;92.904;2022-07-23T02:21:10;97950.59;;;17.56;56.80
42887;BME280;29032;56.028;92.904;2022-07-23T02:26:14;97945.97;;;17.75;57.30
42887;BME280;29032;56.028;92.904;2022-07-23T02:31:16;97946.19;;;17.79;56.26
42887;BME280;29032;56.028;92.904;2022-07-23T02:36:18;97949.31;;;17.85;56.00
42887;BME280;29032;56.028;92.904;2022-07-23T02:41:22;97943.53;;;17.95;55.77
42887;BME280;29032;56.028;92.904;2022-07-23T02:46:25;97960.41;;;17.95;55.39
42887;BME280;29032;56.028;92.904;2022-07-23T02:51:28;97957.47;;;17.93;54.96
42887;BME280;29032;56.028;92.904;2022-07-23T02:56:35;97958.78;;;18.17;56.83
42887;BME280;29032;56.028;92.904;2022-07-23T03:01:37;97968.25;;;17.96;54.81
42887;BME280;29032;56.028;92.904;2022-07-23T03:06:39;97970.94;;;17.94;54.77
42887;BME280;29032;56.028;92.904;2022-07-23T03:11:43;97979.19;;;18.04;55.55
42887;BME280;29032;56.028;92.904;2022-07-23T03:16:45;97982.25;;;18.08;55.40
42887;BME280;29032;56.028;92.904;2022-07-23T03:21:47;97988.72;;;18.10;55.50
42887;BME280;29032;56.028;92.904;2022-07-23T03:26:51;97990.81;;;18.24;54.75
42887;BME280;29032;56.028;92.904;2022-07-23T03:31:53;97991.19;;;18.30;54.96
42887;BME280;29032;56.028;92.904;2022-07-23T03:36:55;97992.34;;;18.38;54.93
42887;BME280;29032;56.028;92.904;2022-07-23T03:42:00;97991.50;;;18.50;54.47
42887;BME280;29032;56.028;92.904;2022-07-23T03:47:03;97986.91;;;18.56;54.66
42887;BME280;29032;56.028;92.904;2022-07-23T03:52:05;97994.53;;;18.67;54.21
42887;BME280;29032;56.028;92.904;2022-07-23T03:57:09;97998.16;;;18.84;54.14
42887;BME280;29032;56.028;92.904;2022-07-23T04:02:11;97998.38;;;18.88;54.06
42887;BME280;29032;56.028;92.904;2022-07-23T04:07:13;98006.94;;;18.90;53.53
42887;BME280;29032;56.028;92.904;2022-07-23T04:12:17;98016.25;;;18.92;53.78
42887;BME280;29032;56.028;92.904;2022-07-23T04:17:19;98007.25;;;18.82;53.37
42887;BME280;29032;56.028;92.904;2022-07-23T04:22:21;98017.09;;;18.81;53.45
42887;BME280;29032;56.028;92.904;2022-07-23T04:27:25;98024.06;;;18.80;53.65
42887;BME280;29032;56.028;92.904;2022-07-23T04:32:27;98032.53;;;18.66;53.48
42887;BME280;29032;56.028;92.904;2022-07-23T04:37:30;98057.97;;;18.55;55.22
42887;BME280;29032;56.028;92.904;2022-07-23T04:42:33;98075.91;;;18.34;58.18
42887;BME280;29032;56.028;92.904;2022-07-23T04:47:36;98068.97;;;17.98;59.83
42887;BME280;29032;56.028;92.904;2022-07-23T04:52:38;98074.06;;;17.88;60.48
42887;BME280;29032;56.028;92.904;2022-07-23T04:57:42;98079.16;;;17.91;59.61
42887;BME280;29032;56.028;92.904;2022-07-23T05:02:44;98078.94;;;17.87;59.21
42887;BME280;29032;56.028;92.904;2022-07-23T05:07:46;98090.50;;;17.79;59.35
42887;BME280;29032;56.028;92.904;2022-07-23T05:12:50;98086.31;;;17.80;58.68
42887;BME280;29032;56.028;92.904;2022-07-23T05:17:52;98078.75;;;17.71;58.63
42887;BME280;29032;56.028;92.904;2022-07-23T05:22:54;98084.59;;;17.87;59.35
42887;BME280;29032;56.028;92.904;2022-07-23T05:33:01;98085.09;;;18.09;58.40
42887;BME280;29032;56.028;92.904;2022-07-23T05:38:03;98075.63;;;18.16;58.82
42887;BME280;29032;56.028;92.904;2022-07-23T05:43:08;98085.81;;;18.35;57.35
42887;BME280;29032;56.028;92.904;2022-07-23T05:48:10;98087.28;;;18.36;56.26
42887;BME280;29032;56.028;92.904;2022-07-23T05:53:22;98080.31;;;18.51;55.85
42887;BME280;29032;56.028;92.904;2022-07-23T05:58:47;98073.03;;;18.73;55.43
42887;BME280;29032;56.028;92.904;2022-07-23T06:03:52;98087.88;;;18.87;54.69
42887;BME280;29032;56.028;92.904;2022-07-23T06:08:54;98085.50;;;19.09;54.41
42887;BME280;29032;56.028;92.904;2022-07-23T06:13:58;98077.41;;;19.45;53.05
42887;BME280;29032;56.028;92.904;2022-07-23T06:19:11;98083.75;;;19.59;53.85
42887;BME280;29032;56.028;92.904;2022-07-23T06:24:14;98077.78;;;19.67;51.77
42887;BME280;29032;56.028;92.904;2022-07-23T06:29:18;98084.53;;;19.75;51.22
42887;BME280;29032;56.028;92.904;2022-07-23T06:34:20;98092.88;;;19.58;51.37
42887;BME280;29032;56.028;92.904;2022-07-23T06:39:22;98089.13;;;19.39;52.53
42887;BME280;29032;56.028;92.904;2022-07-23T06:44:26;98102.66;;;19.13;54.42
42887;BME280;29032;56.028;92.904;2022-07-23T06:49:29;98106.66;;;18.69;58.15
42887;BME280;29032;56.028;92.904;2022-07-23T06:54:33;98094.22;;;18.60;58.18
42887;BME280;29032;56.028;92.904;2022-07-23T06:59:36;98100.81;;;18.65;57.28
42887;BME280;29032;56.028;92.904;2022-07-23T07:04:38;98097.38;;;18.66;57.40
42887;BME280;29032;56.028;92.904;2022-07-23T07:09:40;98097.91;;;18.90;57.66
42887;BME280;29032;56.028;92.904;2022-07-23T07:14:44;98093.22;;;19.23;56.21
42887;BME280;29032;56.028;92.904;2022-07-23T07:19:46;98092.09;;;19.28;54.61
42887;BME280;29032;56.028;92.904;2022-07-23T07:24:48;98104.19;;;19.30;55.18
42887;BME280;29032;56.028;92.904;2022-07-23T07:29:52;98099.38;;;19.46;55.09
42887;BME280;29032;56.028;92.904;2022-07-23T07:34:54;98097.19;;;19.45;54.53
42887;BME280;29032;56.028;92.904;2022-07-23T07:39:56;98089.09;;;19.53;54.10
42887;BME280;29032;56.028;92.904;2022-07-23T07:45:00;98084.81;;;19.52;54.05
42887;BME280;29032;56.028;92.904;2022-07-23T07:50:02;98076.44;;;19.54;54.57
42887;BME280;29032;56.028;92.904;2022-07-23T07:55:05;98081.34;;;19.67;54.56
42887;BME280;29032;56.028;92.904;2022-07-23T08:00:10;98074.63;;;19.74;53.15
42887;BME280;29032;56.028;92.904;2022-07-23T08:05:19;98070.34;;;19.73;53.62
42887;BME280;29032;56.028;92.904;2022-07-23T08:10:21;98071.91;;;19.77;53.49
42887;BME280;29032;56.028;92.904;2022-07-23T08:15:26;98069.59;;;19.87;52.69
42887;BME280;29032;56.028;92.904;2022-07-23T08:20:28;98067.25;;;19.97;52.18
42887;BME280;29032;56.028;92.904;2022-07-23T08:25:32;98069.75;;;20.20;51.59
42887;BME280;29032;56.028;92.904;2022-07-23T08:30:37;98050.81;;;20.39;50.99
42887;BME280;29032;56.028;92.904;2022-07-23T08:35:41;98066.16;;;20.65;50.30
42887;BME280;29032;56.028;92.904;2022-07-23T08:40:46;98078.91;;;20.82;49.24
42887;BME280;29032;56.028;92.904;2022-07-23T08:45:51;98079.41;;;21.10;49.32
42887;BME280;29032;56.028;92.904;2022-07-23T08:50:54;98073.31;;;21.49;48.69
42887;BME280;29032;56.028;92.904;2022-07-23T08:55:58;98073.09;;;21.79;47.37
42887;BME280;29032;56.028;92.904;2022-07-23T09:01:03;98062.50;;;21.97;46.15
42887;BME280;29032;56.028;92.904;2022-07-23T09:06:06;98071.66;;;22.13;45.10
42887;BME280;29032;56.028;92.904;2022-07-23T09:11:09;98070.19;;;22.30;45.66
42887;BME280;29032;56.028;92.904;2022-07-23T09:16:14;98065.72;;;22.63;45.84
42887;BME280;29032;56.028;92.904;2022-07-23T09:21:22;98077.38;;;22.71;45.31
42887;BME280;29032;56.028;92.904;2022-07-23T09:26:32;98066.28;;;22.39;43.78
42887;BME280;29032;56.028;92.904;2022-07-23T09:31:48;98082.81;;;21.91;46.25
42887;BME280;29032;56.028;92.904;2022-07-23T09:36:53;98080.31;;;21.64;45.54
42887;BME280;29032;56.028;92.904;2022-07-23T09:41:55;98071.81;;;22.00;46.00
42887;BME280;29032;56.028;92.904;2022-07-23T09:47:00;98072.88;;;22.08;44.91
42887;BME280;29032;56.028;92.904;2022-07-23T09:52:04;98084.34;;;21.77;46.11
42887;BME280;29032;56.028;92.904;2022-07-23T09:57:07;98082.13;;;21.40;47.00
42887;BME280;29032;56.028;92.904;2022-07-23T10:02:12;98091.25;;;21.38;46.97
42887;BME280;29032;56.028;92.904;2022-07-23T10:07:34;98087.38;;;21.81;45.97
42887;BME280;29032;56.028;92.904;2022-07-23T10:12:55;98089.63;;;21.84;45.20
42887;BME280;29032;56.028;92.904;2022-07-23T10:18:00;98093.84;;;21.83;44.22
42887;BME280;29032;56.028;92.904;2022-07-23T10:23:07;98090.19;;;21.99;44.30
42887;BME280;29032;56.028;92.904;2022-07-23T10:28:30;98097.78;;;21.94;43.18
42887;BME280;29032;56.028;92.904;2022-07-23T10:33:46;98124.66;;;21.93;43.31
42887;BME280;29032;56.028;92.904;2022-07-23T10:38:58;98117.03;;;21.80;43.25
42887;BME280;29032;56.028;92.904;2022-07-23T10:44:10;98129.03;;;21.78;43.30
42887;BME280;29032;56.028;92.904;2022-07-23T10:49:23;98119.59;;;22.07;43.25
42887;BME280;29032;56.028;92.904;2022-07-23T10:54:26;98128.41;;;21.98;40.20
42887;BME280;29032;56.028;92.904;2022-07-23T10:59:28;98131.66;;;22.08;39.45
42887;BME280;29032;56.028;92.904;2022-07-23T11:04:49;98124.72;;;22.66;40.86
42887;BME280;29032;56.028;92.904;2022-07-23T11:09:52;98130.53;;;22.88;37.83
42887;BME280;29032;56.028;92.904;2022-07-23T11:15:02;98132.34;;;22.80;38.25
42887;BME280;29032;56.028;92.904;2022-07-23T11:20:20;98137.06;;;22.73;40.36
42887;BME280;29032;56.028;92.904;2022-07-23T11:25:35;98123.41;;;22.69;39.46
42887;BME280;29032;56.028;92.904;2022-07-23T11:30:38;98126.47;;;22.38;38.58
42887;BME280;29032;56.028;92.904;2022-07-23T11:35:44;98125.75;;;22.19;39.02
42887;BME280;29032;56.028;92.904;2022-07-23T11:40:48;98134.16;;;22.00;39.55
42887;BME280;29032;56.028;92.904;2022-07-23T11:45:53;98124.00;;;21.94;39.29
42887;BME280;29032;56.028;92.904;2022-07-23T11:50:57;98121.03;;;21.90;39.97
42887;BME280;29032;56.028;92.904;2022-07-23T11:56:04;98128.88;;;21.92;40.34
42887;BME280;29032;56.028;92.904;2022-07-23T12:01:06;98139.81;;;21.82;40.87
42887;BME280;29032;56.028;92.904;2022-07-23T12:06:10;98150.72;;;21.72;42.29
42887;BME280;29032;56.028;92.904;2022-07-23T12:11:12;98162.09;;;21.56;42.94
42887;BME280;29032;56.028;92.904;2022-07-23T12:16:14;98152.41;;;21.45;43.63
42887;BME280;29032;56.028;92.904;2022-07-23T12:21:18;98158.00;;;21.43;43.67
42887;BME280;29032;56.028;92.904;2022-07-23T12:26:21;98154.81;;;21.35;43.41
42887;BME280;29032;56.028;92.904;2022-07-23T12:31:26;98159.84;;;21.36;43.50
42887;BME280;29032;56.028;92.904;2022-07-23T12:36:38;98162.84;;;21.41;43.86
42887;BME280;29032;56.028;92.904;2022-07-23T12:41:51;98162.59;;;21.34;44.02
42887;BME280;29032;56.028;92.904;2022-07-23T12:46:53;98157.72;;;21.21;42.48
42887;BME280;29032;56.028;92.904;2022-07-23T12:51:57;98163.59;;;21.25;41.74
42887;BME280;29032;56.028;92.904;2022-07-23T12:56:59;98164.13;;;21.22;39.86
42887;BME280;29032;56.028;92.904;2022-07-23T13:02:01;98172.34;;;21.16;38.31
42887;BME280;29032;56.028;92.904;2022-07-23T13:07:05;98171.53;;;21.13;38.22
42887;BME280;29032;56.028;92.904;2022-07-23T13:12:08;98177.47;;;21.03;37.95
42887;BME280;29032;56.028;92.904;2022-07-23T13:17:10;98186.22;;;20.94;38.10
42887;BME280;29032;56.028;92.904;2022-07-23T13:22:13;98188.97;;;20.92;38.42
42887;BME280;29032;56.028;92.904;2022-07-23T13:27:16;98187.31;;;20.87;38.24
42887;BME280;29032;56.028;92.904;2022-07-23T13:32:18;98194.06;;;20.79;38.61
42887;BME280;29032;56.028;92.904;2022-07-23T13:37:22;98193.88;;;20.75;40.14
42887;BME280;29032;56.028;92.904;2022-07-23T13:42:24;98198.31;;;20.65;42.08
42887;BME280;29032;56.028;92.904;2022-07-23T13:47:26;98203.28;;;20.50;42.50
42887;BME280;29032;56.028;92.904;2022-07-23T13:52:30;98223.34;;;20.41;45.22
42887;BME280;29032;56.028;92.904;2022-07-23T13:57:32;98216.88;;;20.24;46.31
42887;BME280;29032;56.028;92.904;2022-07-23T14:02:36;98222.34;;;20.20;46.97
42887;BME280;29032;56.028;92.904;2022-07-23T14:07:40;98235.44;;;20.14;47.06
42887;BME280;29032;56.028;92.904;2022-07-23T14:12:42;98230.97;;;19.95;48.63
42887;BME280;29032;56.028;92.904;2022-07-23T14:17:45;98234.50;;;19.82;48.75
42887;BME280;29032;56.028;92.904;2022-07-23T14:22:49;98239.34;;;19.65;47.85
42887;BME280;29032;56.028;92.904;2022-07-23T14:27:52;98241.00;;;19.43;48.61
42887;BME280;29032;56.028;92.904;2022-07-23T14:32:54;98235.97;;;19.28;48.23
42887;BME280;29032;56.028;92.904;2022-07-23T14:37:58;98236.16;;;19.18;48.39
42887;BME280;29032;56.028;92.904;2022-07-23T14:43:00;98229.41;;;18.98;46.96
42887;BME280;29032;56.028;92.904;2022-07-23T14:48:02;98240.66;;;18.84;48.87
42887;BME280;29032;56.028;92.904;2022-07-23T14:53:06;98244.38;;;18.75;49.81
42887;BME280;29032;56.028;92.904;2022-07-23T14:58:09;98243.50;;;18.58;49.85
42887;BME280;29032;56.028;92.904;2022-07-23T15:03:11;98243.03;;;18.50;50.18
42887;BME280;29032;56.028;92.904;2022-07-23T15:08:14;98252.56;;;18.57;50.28
42887;BME280;29032;56.028;92.904;2022-07-23T15:13:17;98252.72;;;18.47;50.48
42887;BME280;29032;56.028;92.904;2022-07-23T15:18:19;98253.00;;;18.39;50.72
42887;BME280;29032;56.028;92.904;2022-07-23T15:23:23;98262.06;;;18.38;50.42
42887;BME280;29032;56.028;92.904;2022-07-23T15:28:25;98262.69;;;18.25;52.21
42887;BME280;29032;56.028;92.904;2022-07-23T15:33:27;98261.34;;;18.26;51.87
42887;BME280;29032;56.028;92.904;2022-07-23T15:38:31;98276.53;;;18.21;52.51
42887;BME280;29032;56.028;92.904;2022-07-23T15:43:33;98263.50;;;17.90;52.47
42887;BME280;29032;56.028;92.904;2022-07-23T15:48:36;98272.84;;;17.81;52.47
42887;BME280;29032;56.028;92.904;2022-07-23T15:53:40;98284.59;;;17.77;51.97
42887;BME280;29032;56.028;92.904;2022-07-23T15:58:42;98277.25;;;17.61;52.13
42887;BME280;29032;56.028;92.904;2022-07-23T16:03:44;98274.56;;;17.63;49.88
42887;BME280;29032;56.028;92.904;2022-07-23T16:08:48;98280.66;;;17.71;51.07
42887;BME280;29032;56.028;92.904;2022-07-23T16:13:50;98281.91;;;17.68;50.72
42887;BME280;29032;56.028;92.904;2022-07-23T16:18:52;98284.59;;;17.66;52.92
42887;BME280;29032;56.028;92.904;2022-07-23T16:23:56;98276.16;;;17.66;52.09
42887;BME280;29032;56.028;92.904;2022-07-23T16:28:58;98278.94;;;17.42;53.22
42887;BME280;29032;56.028;92.904;2022-07-23T16:34:00;98281.03;;;17.30;53.04
42887;BME280;29032;56.028;92.904;2022-07-23T16:39:04;98276.34;;;17.11;53.47
42887;BME280;29032;56.028;92.904;2022-07-23T16:44:06;98290.09;;;16.84;53.95
42887;BME280;29032;56.028;92.904;2022-07-23T16:49:08;98293.47;;;16.70;54.51
42887;BME280;29032;56.028;92.904;2022-07-23T16:54:12;98298.88;;;16.78;53.98
42887;BME280;29032;56.028;92.904;2022-07-23T16:59:15;98288.50;;;16.81;53.28
42887;BME280;29032;56.028;92.904;2022-07-23T17:04:17;98286.66;;;16.85;52.94
42887;BME280;29032;56.028;92.904;2022-07-23T17:09:21;98282.66;;;16.88;52.88
42887;BME280;29032;56.028;92.904;2022-07-23T17:14:23;98278.56;;;16.80;54.75
42887;BME280;29032;56.028;92.904;2022-07-23T17:19:25;98289.34;;;16.83;53.62
42887;BME280;29032;56.028;92.904;2022-07-23T17:24:29;98289.34;;;16.83;52.88
42887;BME280;29032;56.028;92.904;2022-07-23T17:29:31;98290.03;;;16.72;53.29
42887;BME280;29032;56.028;92.904;2022-07-23T17:34:33;98292.00;;;16.69;53.20
42887;BME280;29032;56.028;92.904;2022-07-23T17:39:37;98286.84;;;16.66;54.14
42887;BME280;29032;56.028;92.904;2022-07-23T17:44:39;98285.44;;;16.55;53.82
42887;BME280;29032;56.028;92.904;2022-07-23T17:49:41;98293.59;;;16.51;53.56
42887;BME280;29032;56.028;92.904;2022-07-23T17:54:45;98297.63;;;16.48;53.92
42887;BME280;29032;56.028;92.904;2022-07-23T17:59:47;98288.88;;;16.32;55.44
42887;BME280;29032;56.028;92.904;2022-07-23T18:04:49;98285.91;;;16.30;53.82
42887;BME280;29032;56.028;92.904;2022-07-23T18:09:53;98277.38;;;16.28;54.99
42887;BME280;29032;56.028;92.904;2022-07-23T18:14:55;98282.91;;;16.16;54.47
42887;BME280;29032;56.028;92.904;2022-07-23T18:19:57;98279.72;;;16.10;54.55
42887;BME280;29032;56.028;92.904;2022-07-23T18:25:01;98282.88;;;16.05;55.07
42887;BME280;29032;56.028;92.904;2022-07-23T18:30:05;98290.88;;;15.99;54.95
42887;BME280;29032;56.028;92.904;2022-07-23T18:35:07;98301.81;;;15.94;54.82
42887;BME280;29032;56.028;92.904;2022-07-23T18:40:11;98287.78;;;15.94;54.92
42887;BME280;29032;56.028;92.904;2022-07-23T18:45:14;98274.84;;;15.89;55.07
42887;BME280;29032;56.028;92.904;2022-07-23T18:50:16;98279.84;;;15.91;55.57
42887;BME280;29032;56.028;92.904;2022-07-23T18:55:19;98265.22;;;15.92;56.33
42887;BME280;29032;56.028;92.904;2022-07-23T19:00:21;98266.13;;;15.85;56.59
42887;BME280;29032;56.028;92.904;2022-07-23T19:05:24;98267.88;;;15.90;55.58
42887;BME280;29032;56.028;92.904;2022-07-23T19:10:28;98270.81;;;15.92;55.31
42887;BME280;29032;56.028;92.904;2022-07-23T19:15:30;98270.41;;;15.86;56.06
42887;BME280;29032;56.028;92.904;2022-07-23T19:20:32;98265.69;;;15.89;55.68
42887;BME280;29032;56.028;92.904;2022-07-23T19:25:36;98265.53;;;15.87;56.88
42887;BME280;29032;56.028;92.904;2022-07-23T19:30:38;98260.59;;;15.76;57.66
42887;BME280;29032;56.028;92.904;2022-07-23T19:35:41;98264.25;;;15.78;56.83
42887;BME280;29032;56.028;92.904;2022-07-23T19:40:44;98262.94;;;15.79;56.67
42887;BME280;29032;56.028;92.904;2022-07-23T19:45:46;98252.91;;;15.76;56.79
42887;BME280;29032;56.028;92.904;2022-07-23T19:50:49;98247.44;;;15.78;58.53
42887;BME280;29032;56.028;92.904;2022-07-23T19:55:52;98247.34;;;15.88;57.59
42887;BME280;29032;56.028;92.904;2022-07-23T20:00:54;98249.91;;;15.84;57.06
42887;BME280;29032;56.028;92.904;2022-07-23T20:05:56;98258.25;;;15.72;57.16
42887;BME280;29032;56.028;92.904;2022-07-23T20:11:00;98250.88;;;15.67;57.57
42887;BME280;29032;56.028;92.904;2022-07-23T20:16:02;98248.84;;;15.58;58.32
42887;BME280;29032;56.028;92.904;2022-07-23T20:21:05;98243.34;;;15.60;58.75
42887;BME280;29032;56.028;92.904;2022-07-23T20:26:08;98245.56;;;15.71;57.42
42887;BME280;29032;56.028;92.904;2022-07-23T20:31:11;98242.03;;;15.61;58.38
42887;BME280;29032;56.028;92.904;2022-07-23T20:36:13;98225.84;;;15.50;57.88
42887;BME280;29032;56.028;92.904;2022-07-23T20:41:16;98222.63;;;15.44;59.02
42887;BME280;29032;56.028;92.904;2022-07-23T20:46:18;98217.50;;;15.40;59.64
42887;BME280;29032;56.028;92.904;2022-07-23T20:51:21;98213.81;;;15.37;60.27
42887;BME280;29032;56.028;92.904;2022-07-23T20:56:24;98207.78;;;15.31;59.90
42887;BME280;29032;56.028;92.904;2022-07-23T21:01:26;98202.53;;;15.16;60.41
42887;BME280;29032;56.028;92.904;2022-07-23T21:06:29;98203.75;;;15.13;61.11
42887;BME280;29032;56.028;92.904;2022-07-23T21:11:32;98207.25;;;15.23;61.28
42887;BME280;29032;56.028;92.904;2022-07-23T21:16:34;98210.03;;;15.23;61.15
42887;BME280;29032;56.028;92.904;2022-07-23T21:21:37;98216.84;;;15.20;61.66
42887;BME280;29032;56.028;92.904;2022-07-23T21:26:40;98224.78;;;15.33;61.38
42887;BME280;29032;56.028;92.904;2022-07-23T21:31:42;98226.22;;;15.34;59.75
42887;BME280;29032;56.028;92.904;2022-07-23T21:36:44;98228.00;;;15.39;59.79
42887;BME280;29032;56.028;92.904;2022-07-23T21:41:48;98223.19;;;15.52;59.95
42887;BME280;29032;56.028;92.904;2022-07-23T21:46:50;98226.59;;;15.50;59.72
42887;BME280;29032;56.028;92.904;2022-07-23T21:51:52;98241.09;;;15.47;60.50
42887;BME280;29032;56.028;92.904;2022-07-23T21:56:56;98239.47;;;15.44;60.83
42887;BME280;29032;56.028;92.904;2022-07-23T22:01:58;98236.91;;;15.26;61.33
42887;BME280;29032;56.028;92.904;2022-07-23T22:07:00;98243.25;;;15.27;60.48
42887;BME280;29032;56.028;92.904;2022-07-23T22:12:04;98247.34;;;15.35;60.46
42887;BME280;29032;56.028;92.904;2022-07-23T22:17:06;98245.44;;;15.28;60.62
42887;BME280;29032;56.028;92.904;2022-07-23T22:22:08;98254.72;;;15.31;60.70
42887;BME280;29032;56.028;92.904;2022-07-23T22:27:14;98248.94;;;15.38;61.18
42887;BME280;29032;56.028;92.904;2022-07-23T22:32:16;98247.19;;;15.33;61.99
42887;BME280;29032;56.028;92.904;2022-07-23T22:37:18;98242.94;;;15.32;61.67
42887;BME280;29032;56.028;92.904;2022-07-23T22:42:21;98251.16;;;15.40;61.47
42887;BME280;29032;56.028;92.904;2022-07-23T22:47:23;98248.66;;;15.34;61.39
42887;BME280;29032;56.028;92.904;2022-07-23T22:52:25;98251.47;;;15.34;61.27
42887;BME280;29032;56.028;92.904;2022-07-23T22:57:29;98259.16;;;15.34;61.58
42887;BME280;29032;56.028;92.904;2022-07-23T23:02:31;98261.53;;;15.28;61.06
42887;BME280;29032;56.028;92.904;2022-07-23T23:07:33;98257.25;;;15.27;61.42
42887;BME280;29032;56.028;92.904;2022-07-23T23:12:37;98259.59;;;15.30;61.06
42887;BME280;29032;56.028;92.904;2022-07-23T23:17:39;98246.66;;;15.25;60.89
42887;BME280;29032;56.028;92.904;2022-07-23T23:22:41;98230.88;;;15.20;61.95
42887;BME280;29032;56.028;92.904;2022-07-23T23:27:45;98237.44;;;15.34;61.50
42887;BME280;29032;56.028;92.904;2022-07-23T23:32:47;98251.06;;;15.28;62.08
42887;BME280;29032;56.028;92.904;2022-07-23T23:37:49;98253.56;;;15.24;62.31
42887;BME280;29032;56.028;92.904;2022-07-23T23:42:52;98253.00;;;15.26;62.09
42887;BME280;29032;56.028;92.904;2022-07-23T23:47:54;98250.19;;;15.16;62.79
42887;BME280;29032;56.028;92.904;2022-07-23T23:52:56;98253.56;;;15.24;62.06
42887;BME280;29032;56.028;92.904;2022-07-23T23:58:00;98257.53;;;15.31;62.03
